sensor_id;sensor_type;location;lat;lon;timestamp;P1;durP1;ratioP1;P2;durP2;ratioP2
4182;SDS011;2105;52.300;9.182;2023-05-10T00:01:47;14.03;;;12.03;;
4182;SDS011;2105;52.300;9.182;2023-05-10T00:04:13;12.70;;;11.40;;
4182;SDS011;2105;52.300;9.182;2023-05-10T00:06:40;13.33;;;12.03;;
4182;SDS011;2105;52.300;9.182;2023-05-10T00:09:07;12.73;;;11.60;;
4182;SDS011;2105;52.300;9.182;2023-05-10T00:11:34;15.20;;;11.30;;
4182;SDS011;2105;52.300;9.182;2023-05-10T00:14:02;13.23;;;11.80;;
4182;SDS011;2105;52.300;9.182;2023-05-10T00:16:29;12.73;;;11.43;;
4182;SDS011;2105;52.300;9.182;2023-05-10T00:18:56;11.63;;;10.63;;
4182;SDS011;2105;52.300;9.182;2023-05-10T00:21:23;12.93;;;10.67;;
4182;SDS011;2105;52.300;9.182;2023-05-10T00:23:50;11.83;;;10.73;;
4182;SDS011;2105;52.300;9.182;2023-05-10T00:26:17;11.77;;;10.57;;
4182;SDS011;2105;52.300;9.182;2023-05-10T00:28:44;11.80;;;10.60;;
4182;SDS011;2105;52.300;9.182;2023-05-10T00:31:12;12.83;;;11.40;;
4182;SDS011;2105;52.300;9.182;2023-05-10T00:33:39;14.03;;;12.43;;
4182;SDS011;2105;52.300;9.182;2023-05-10T00:36:06;17.00;;;12.77;;
4182;SDS011;2105;52.300;9.182;2023-05-10T00:38:33;13.47;;;12.17;;
4182;SDS011;2105;52.300;9.182;2023-05-10T00:41:00;13.10;;;11.90;;
4182;SDS011;2105;52.300;9.182;2023-05-10T00:43:27;13.07;;;11.67;;
4182;SDS011;2105;52.300;9.182;2023-05-10T00:45:54;13.10;;;10.20;;
4182;SDS011;2105;52.300;9.182;2023-05-10T00:48:22;11.70;;;10.50;;
4182;SDS011;2105;52.300;9.182;2023-05-10T00:50:49;11.90;;;10.90;;
4182;SDS011;2105;52.300;9.182;2023-05-10T00:53:16;13.13;;;11.73;;
4182;SDS011;2105;52.300;9.182;2023-05-10T00:55:43;13.30;;;12.00;;
4182;SDS011;2105;52.300;9.182;2023-05-10T00:58:10;11.80;;;10.70;;
4182;SDS011;2105;52.300;9.182;2023-05-10T01:00:38;12.57;;;11.27;;
4182;SDS011;2105;52.300;9.182;2023-05-10T01:03:09;13.17;;;11.93;;
4182;SDS011;2105;52.300;9.182;2023-05-10T01:05:37;14.50;;;13.10;;
4182;SDS011;2105;52.300;9.182;2023-05-10T01:08:04;14.87;;;13.27;;
4182;SDS011;2105;52.300;9.182;2023-05-10T01:10:31;12.93;;;11.73;;
4182;SDS011;2105;52.300;9.182;2023-05-10T01:12:58;12.40;;;11.20;;
4182;SDS011;2105;52.300;9.182;2023-05-10T01:15:25;13.63;;;11.07;;
4182;SDS011;2105;52.300;9.182;2023-05-10T01:17:52;12.80;;;11.20;;
4182;SDS011;2105;52.300;9.182;2023-05-10T01:20:20;13.57;;;12.13;;
4182;SDS011;2105;52.300;9.182;2023-05-10T01:32:14;13.97;;;12.57;;
4182;SDS011;2105;52.300;9.182;2023-05-10T01:34:49;14.13;;;12.30;;
4182;SDS011;2105;52.300;9.182;2023-05-10T01:37:25;14.83;;;12.30;;
4182;SDS011;2105;52.300;9.182;2023-05-10T01:39:58;19.20;;;13.50;;
4182;SDS011;2105;52.300;9.182;2023-05-10T01:42:32;14.47;;;12.97;;
4182;SDS011;2105;52.300;9.182;2023-05-10T01:45:07;14.67;;;13.00;;
4182;SDS011;2105;52.300;9.182;2023-05-10T01:47:42;13.90;;;12.50;;
4182;SDS011;2105;52.300;9.182;2023-05-10T01:50:12;13.60;;;12.20;;
4182;SDS011;2105;52.300;9.182;2023-05-10T01:52:44;15.63;;;12.13;;
4182;SDS011;2105;52.300;9.182;2023-05-10T01:55:16;13.17;;;10.50;;
4182;SDS011;2105;52.300;9.182;2023-05-10T01:57:46;12.30;;;11.00;;
4182;SDS011;2105;52.300;9.182;2023-05-10T02:00:14;12.53;;;11.23;;
4182;SDS011;2105;52.300;9.182;2023-05-10T02:02:44;13.10;;;11.70;;
4182;SDS011;2105;52.300;9.182;2023-05-10T02:05:13;13.53;;;12.13;;
4182;SDS011;2105;52.300;9.182;2023-05-10T02:07:41;12.43;;;11.13;;
4182;SDS011;2105;52.300;9.182;2023-05-10T02:10:09;14.33;;;12.20;;
4182;SDS011;2105;52.300;9.182;2023-05-10T02:12:39;13.00;;;10.60;;
4182;SDS011;2105;52.300;9.182;2023-05-10T02:15:08;13.23;;;11.60;;
4182;SDS011;2105;52.300;9.182;2023-05-10T02:17:37;13.00;;;11.70;;
4182;SDS011;2105;52.300;9.182;2023-05-10T02:20:07;11.90;;;10.80;;
4182;SDS011;2105;52.300;9.182;2023-05-10T02:22:36;12.67;;;11.37;;
4182;SDS011;2105;52.300;9.182;2023-05-10T02:25:04;13.57;;;12.27;;
4182;SDS011;2105;52.300;9.182;2023-05-10T02:27:34;14.17;;;12.77;;
4182;SDS011;2105;52.300;9.182;2023-05-10T02:30:02;13.60;;;12.30;;
4182;SDS011;2105;52.300;9.182;2023-05-10T02:32:30;14.60;;;13.20;;
4182;SDS011;2105;52.300;9.182;2023-05-10T02:34:57;15.40;;;12.10;;
4182;SDS011;2105;52.300;9.182;2023-05-10T02:37:27;14.53;;;12.80;;
4182;SDS011;2105;52.300;9.182;2023-05-10T02:39:55;14.20;;;12.50;;
4182;SDS011;2105;52.300;9.182;2023-05-10T02:42:23;14.23;;;10.80;;
4182;SDS011;2105;52.300;9.182;2023-05-10T02:44:53;12.00;;;10.83;;
4182;SDS011;2105;52.300;9.182;2023-05-10T02:47:22;13.10;;;11.40;;
4182;SDS011;2105;52.300;9.182;2023-05-10T02:49:48;11.77;;;10.57;;
4182;SDS011;2105;52.300;9.182;2023-05-10T02:52:16;11.97;;;10.67;;
4182;SDS011;2105;52.300;9.182;2023-05-10T02:54:48;12.20;;;10.93;;
4182;SDS011;2105;52.300;9.182;2023-05-10T02:57:28;13.00;;;10.57;;
4182;SDS011;2105;52.300;9.182;2023-05-10T02:59:58;12.17;;;11.07;;
4182;SDS011;2105;52.300;9.182;2023-05-10T03:02:26;11.63;;;10.50;;
4182;SDS011;2105;52.300;9.182;2023-05-10T03:04:53;14.00;;;11.47;;
4182;SDS011;2105;52.300;9.182;2023-05-10T03:07:19;12.73;;;11.43;;
4182;SDS011;2105;52.300;9.182;2023-05-10T03:09:48;12.90;;;11.37;;
4182;SDS011;2105;52.300;9.182;2023-05-10T03:12:16;14.23;;;11.10;;
4182;SDS011;2105;52.300;9.182;2023-05-10T03:14:53;12.53;;;10.37;;
4182;SDS011;2105;52.300;9.182;2023-05-10T03:17:29;13.27;;;11.20;;
4182;SDS011;2105;52.300;9.182;2023-05-10T03:20:02;13.30;;;11.30;;
4182;SDS011;2105;52.300;9.182;2023-05-10T03:22:34;15.17;;;13.07;;
4182;SDS011;2105;52.300;9.182;2023-05-10T03:25:07;17.70;;;13.43;;
4182;SDS011;2105;52.300;9.182;2023-05-10T03:27:36;14.77;;;13.00;;
4182;SDS011;2105;52.300;9.182;2023-05-10T03:30:07;13.53;;;12.13;;
4182;SDS011;2105;52.300;9.182;2023-05-10T03:32:36;13.57;;;12.27;;
4182;SDS011;2105;52.300;9.182;2023-05-10T03:35:06;17.70;;;14.67;;
4182;SDS011;2105;52.300;9.182;2023-05-10T03:37:33;21.07;;;15.60;;
4182;SDS011;2105;52.300;9.182;2023-05-10T03:40:00;21.70;;;15.10;;
4182;SDS011;2105;52.300;9.182;2023-05-10T03:42:28;14.63;;;13.00;;
4182;SDS011;2105;52.300;9.182;2023-05-10T03:44:55;16.73;;;14.13;;
4182;SDS011;2105;52.300;9.182;2023-05-10T03:47:22;20.83;;;13.60;;
4182;SDS011;2105;52.300;9.182;2023-05-10T03:49:49;17.63;;;14.10;;
4182;SDS011;2105;52.300;9.182;2023-05-10T03:52:15;19.13;;;15.63;;
4182;SDS011;2105;52.300;9.182;2023-05-10T03:54:43;18.93;;;14.77;;
4182;SDS011;2105;52.300;9.182;2023-05-10T03:57:10;17.90;;;14.90;;
4182;SDS011;2105;52.300;9.182;2023-05-10T03:59:38;19.53;;;14.60;;
4182;SDS011;2105;52.300;9.182;2023-05-10T04:02:05;18.30;;;14.13;;
4182;SDS011;2105;52.300;9.182;2023-05-10T04:04:32;14.43;;;12.33;;
4182;SDS011;2105;52.300;9.182;2023-05-10T04:07:06;15.30;;;13.10;;
4182;SDS011;2105;52.300;9.182;2023-05-10T04:09:34;18.27;;;12.80;;
4182;SDS011;2105;52.300;9.182;2023-05-10T04:12:01;16.43;;;12.23;;
4182;SDS011;2105;52.300;9.182;2023-05-10T04:14:28;13.50;;;11.10;;
4182;SDS011;2105;52.300;9.182;2023-05-10T04:16:56;16.73;;;11.93;;
4182;SDS011;2105;52.300;9.182;2023-05-10T04:19:23;12.30;;;11.00;;
4182;SDS011;2105;52.300;9.182;2023-05-10T04:21:50;12.00;;;9.40;;
4182;SDS011;2105;52.300;9.182;2023-05-10T04:24:17;11.53;;;8.93;;
4182;SDS011;2105;52.300;9.182;2023-05-10T04:26:43;12.40;;;9.70;;
4182;SDS011;2105;52.300;9.182;2023-05-10T04:29:10;10.80;;;9.70;;
4182;SDS011;2105;52.300;9.182;2023-05-10T04:31:37;11.47;;;10.00;;
4182;SDS011;2105;52.300;9.182;2023-05-10T04:34:05;9.17;;;7.87;;
4182;SDS011;2105;52.300;9.182;2023-05-10T04:36:32;8.83;;;7.77;;
4182;SDS011;2105;52.300;9.182;2023-05-10T04:39:01;7.37;;;6.53;;
4182;SDS011;2105;52.300;9.182;2023-05-10T04:41:28;7.10;;;6.40;;
4182;SDS011;2105;52.300;9.182;2023-05-10T04:43:55;7.03;;;6.30;;
4182;SDS011;2105;52.300;9.182;2023-05-10T04:46:22;7.47;;;6.83;;
4182;SDS011;2105;52.300;9.182;2023-05-10T04:48:49;7.80;;;7.00;;
4182;SDS011;2105;52.300;9.182;2023-05-10T04:51:18;9.93;;;7.37;;
4182;SDS011;2105;52.300;9.182;2023-05-10T04:53:45;8.00;;;7.30;;
4182;SDS011;2105;52.300;9.182;2023-05-10T04:56:12;8.43;;;6.60;;
4182;SDS011;2105;52.300;9.182;2023-05-10T04:58:39;7.60;;;6.93;;
4182;SDS011;2105;52.300;9.182;2023-05-10T05:01:05;7.00;;;6.40;;
4182;SDS011;2105;52.300;9.182;2023-05-10T05:03:34;7.10;;;6.40;;
4182;SDS011;2105;52.300;9.182;2023-05-10T05:06:01;6.57;;;6.00;;
4182;SDS011;2105;52.300;9.182;2023-05-10T05:08:29;7.23;;;6.30;;
4182;SDS011;2105;52.300;9.182;2023-05-10T05:10:57;6.70;;;5.83;;
4182;SDS011;2105;52.300;9.182;2023-05-10T05:13:24;6.40;;;5.80;;
4182;SDS011;2105;52.300;9.182;2023-05-10T05:15:51;7.17;;;6.47;;
4182;SDS011;2105;52.300;9.182;2023-05-10T05:18:18;7.00;;;6.40;;
4182;SDS011;2105;52.300;9.182;2023-05-10T05:20:45;7.13;;;6.43;;
4182;SDS011;2105;52.300;9.182;2023-05-10T05:23:11;7.60;;;6.80;;
4182;SDS011;2105;52.300;9.182;2023-05-10T05:25:40;7.30;;;6.70;;
4182;SDS011;2105;52.300;9.182;2023-05-10T05:28:07;7.10;;;6.50;;
4182;SDS011;2105;52.300;9.182;2023-05-10T05:30:33;8.33;;;6.40;;
4182;SDS011;2105;52.300;9.182;2023-05-10T05:33:00;7.30;;;6.60;;
4182;SDS011;2105;52.300;9.182;2023-05-10T05:35:27;7.43;;;6.70;;
4182;SDS011;2105;52.300;9.182;2023-05-10T05:37:53;6.60;;;5.87;;
4182;SDS011;2105;52.300;9.182;2023-05-10T05:40:20;8.70;;;6.37;;
4182;SDS011;2105;52.300;9.182;2023-05-10T05:42:49;7.00;;;6.40;;
4182;SDS011;2105;52.300;9.182;2023-05-10T05:45:15;6.60;;;6.00;;
4182;SDS011;2105;52.300;9.182;2023-05-10T05:47:42;9.57;;;6.77;;
4182;SDS011;2105;52.300;9.182;2023-05-10T05:50:09;6.37;;;5.20;;
4182;SDS011;2105;52.300;9.182;2023-05-10T05:52:36;6.20;;;5.60;;
4182;SDS011;2105;52.300;9.182;2023-05-10T05:55:03;5.50;;;5.10;;
4182;SDS011;2105;52.300;9.182;2023-05-10T05:57:30;7.30;;;5.70;;
4182;SDS011;2105;52.300;9.182;2023-05-10T05:59:58;5.90;;;5.43;;
4182;SDS011;2105;52.300;9.182;2023-05-10T06:02:25;5.90;;;5.30;;
4182;SDS011;2105;52.300;9.182;2023-05-10T06:04:51;7.23;;;5.40;;
4182;SDS011;2105;52.300;9.182;2023-05-10T06:07:18;5.90;;;5.40;;
4182;SDS011;2105;52.300;9.182;2023-05-10T06:09:45;4.57;;;4.20;;
4182;SDS011;2105;52.300;9.182;2023-05-10T06:12:11;4.60;;;3.80;;
4182;SDS011;2105;52.300;9.182;2023-05-10T06:14:38;4.60;;;4.20;;
4182;SDS011;2105;52.300;9.182;2023-05-10T06:17:06;4.50;;;3.80;;
4182;SDS011;2105;52.300;9.182;2023-05-10T06:19:33;3.93;;;3.60;;
4182;SDS011;2105;52.300;9.182;2023-05-10T06:22:00;4.27;;;3.87;;
4182;SDS011;2105;52.300;9.182;2023-05-10T06:24:27;5.20;;;4.80;;
4182;SDS011;2105;52.300;9.182;2023-05-10T06:26:54;6.13;;;5.63;;
4182;SDS011;2105;52.300;9.182;2023-05-10T06:29:20;10.17;;;5.40;;
4182;SDS011;2105;52.300;9.182;2023-05-10T06:31:47;6.77;;;6.00;;
4182;SDS011;2105;52.300;9.182;2023-05-10T06:34:15;7.00;;;6.33;;
4182;SDS011;2105;52.300;9.182;2023-05-10T06:36:42;9.77;;;5.43;;
4182;SDS011;2105;52.300;9.182;2023-05-10T06:39:08;6.20;;;5.60;;
4182;SDS011;2105;52.300;9.182;2023-05-10T06:41:36;5.87;;;5.00;;
4182;SDS011;2105;52.300;9.182;2023-05-10T06:44:03;7.20;;;6.50;;
4182;SDS011;2105;52.300;9.182;2023-05-10T06:46:30;6.80;;;6.20;;
4182;SDS011;2105;52.300;9.182;2023-05-10T06:48:56;8.73;;;7.93;;
4182;SDS011;2105;52.300;9.182;2023-05-10T06:51:24;9.97;;;8.30;;
4182;SDS011;2105;52.300;9.182;2023-05-10T06:53:51;7.53;;;6.83;;
4182;SDS011;2105;52.300;9.182;2023-05-10T06:56:21;6.77;;;6.17;;
4182;SDS011;2105;52.300;9.182;2023-05-10T06:58:47;7.40;;;6.70;;
4182;SDS011;2105;52.300;9.182;2023-05-10T07:01:14;7.70;;;6.40;;
4182;SDS011;2105;52.300;9.182;2023-05-10T07:03:41;7.17;;;6.47;;
4182;SDS011;2105;52.300;9.182;2023-05-10T07:06:07;6.37;;;5.73;;
4182;SDS011;2105;52.300;9.182;2023-05-10T07:08:35;6.63;;;5.93;;
4182;SDS011;2105;52.300;9.182;2023-05-10T07:11:03;5.50;;;5.10;;
4182;SDS011;2105;52.300;9.182;2023-05-10T07:13:32;6.23;;;5.40;;
4182;SDS011;2105;52.300;9.182;2023-05-10T07:16:01;6.23;;;5.67;;
4182;SDS011;2105;52.300;9.182;2023-05-10T07:18:28;5.67;;;5.13;;
4182;SDS011;2105;52.300;9.182;2023-05-10T07:20:54;5.40;;;5.00;;
4182;SDS011;2105;52.300;9.182;2023-05-10T07:23:22;5.50;;;5.00;;
4182;SDS011;2105;52.300;9.182;2023-05-10T07:25:50;5.30;;;4.90;;
4182;SDS011;2105;52.300;9.182;2023-05-10T07:28:17;5.90;;;5.40;;
4182;SDS011;2105;52.300;9.182;2023-05-10T07:30:44;5.37;;;4.97;;
4182;SDS011;2105;52.300;9.182;2023-05-10T07:33:12;5.50;;;5.00;;
4182;SDS011;2105;52.300;9.182;2023-05-10T07:35:39;6.40;;;5.67;;
4182;SDS011;2105;52.300;9.182;2023-05-10T07:38:06;6.13;;;5.53;;
4182;SDS011;2105;52.300;9.182;2023-05-10T07:40:33;5.70;;;4.77;;
4182;SDS011;2105;52.300;9.182;2023-05-10T07:43:01;5.57;;;5.13;;
4182;SDS011;2105;52.300;9.182;2023-05-10T07:45:27;5.13;;;4.67;;
4182;SDS011;2105;52.300;9.182;2023-05-10T07:47:54;7.70;;;4.87;;
4182;SDS011;2105;52.300;9.182;2023-05-10T07:50:21;6.50;;;4.90;;
4182;SDS011;2105;52.300;9.182;2023-05-10T07:52:48;5.43;;;4.80;;
4182;SDS011;2105;52.300;9.182;2023-05-10T07:55:14;4.90;;;4.43;;
4182;SDS011;2105;52.300;9.182;2023-05-10T07:57:41;4.77;;;4.37;;
4182;SDS011;2105;52.300;9.182;2023-05-10T08:00:11;6.03;;;4.63;;
4182;SDS011;2105;52.300;9.182;2023-05-10T08:02:39;5.80;;;4.60;;
4182;SDS011;2105;52.300;9.182;2023-05-10T08:05:07;5.30;;;4.80;;
4182;SDS011;2105;52.300;9.182;2023-05-10T08:07:34;4.87;;;4.47;;
4182;SDS011;2105;52.300;9.182;2023-05-10T08:10:01;4.50;;;4.10;;
4182;SDS011;2105;52.300;9.182;2023-05-10T08:12:28;5.23;;;4.83;;
4182;SDS011;2105;52.300;9.182;2023-05-10T08:14:56;4.83;;;4.43;;
4182;SDS011;2105;52.300;9.182;2023-05-10T08:17:24;6.53;;;4.50;;
4182;SDS011;2105;52.300;9.182;2023-05-10T08:19:51;5.23;;;4.83;;
4182;SDS011;2105;52.300;9.182;2023-05-10T08:22:17;5.03;;;4.53;;
4182;SDS011;2105;52.300;9.182;2023-05-10T08:24:44;5.53;;;5.10;;
4182;SDS011;2105;52.300;9.182;2023-05-10T08:27:11;5.20;;;4.80;;
4182;SDS011;2105;52.300;9.182;2023-05-10T08:29:37;5.53;;;5.10;;
4182;SDS011;2105;52.300;9.182;2023-05-10T08:32:04;9.10;;;5.20;;
4182;SDS011;2105;52.300;9.182;2023-05-10T08:34:32;5.53;;;5.07;;
4182;SDS011;2105;52.300;9.182;2023-05-10T08:36:59;5.77;;;5.27;;
4182;SDS011;2105;52.300;9.182;2023-05-10T08:39:25;5.67;;;5.17;;
4182;SDS011;2105;52.300;9.182;2023-05-10T08:41:52;6.03;;;5.53;;
4182;SDS011;2105;52.300;9.182;2023-05-10T08:44:23;7.30;;;6.70;;
4182;SDS011;2105;52.300;9.182;2023-05-10T08:46:50;6.50;;;6.00;;
4182;SDS011;2105;52.300;9.182;2023-05-10T08:49:19;6.73;;;6.23;;
4182;SDS011;2105;52.300;9.182;2023-05-10T08:51:49;7.70;;;6.37;;
4182;SDS011;2105;52.300;9.182;2023-05-10T08:54:18;8.03;;;6.63;;
4182;SDS011;2105;52.300;9.182;2023-05-10T08:56:45;7.67;;;6.70;;
4182;SDS011;2105;52.300;9.182;2023-05-10T08:59:12;7.70;;;6.87;;
4182;SDS011;2105;52.300;9.182;2023-05-10T09:01:40;8.43;;;7.73;;
4182;SDS011;2105;52.300;9.182;2023-05-10T09:04:09;8.80;;;7.80;;
4182;SDS011;2105;52.300;9.182;2023-05-10T09:06:36;9.50;;;8.80;;
4182;SDS011;2105;52.300;9.182;2023-05-10T09:09:05;9.70;;;8.37;;
4182;SDS011;2105;52.300;9.182;2023-05-10T09:11:32;8.37;;;7.77;;
4182;SDS011;2105;52.300;9.182;2023-05-10T09:13:59;9.17;;;8.47;;
4182;SDS011;2105;52.300;9.182;2023-05-10T09:16:27;9.80;;;8.80;;
4182;SDS011;2105;52.300;9.182;2023-05-10T09:18:54;9.50;;;8.70;;
4182;SDS011;2105;52.300;9.182;2023-05-10T09:21:20;9.63;;;8.83;;
4182;SDS011;2105;52.300;9.182;2023-05-10T09:23:47;10.33;;;9.40;;
4182;SDS011;2105;52.300;9.182;2023-05-10T09:26:16;10.90;;;9.80;;
4182;SDS011;2105;52.300;9.182;2023-05-10T09:28:53;11.10;;;9.97;;
4182;SDS011;2105;52.300;9.182;2023-05-10T09:31:20;11.87;;;10.77;;
4182;SDS011;2105;52.300;9.182;2023-05-10T09:33:47;11.70;;;10.80;;
4182;SDS011;2105;52.300;9.182;2023-05-10T09:36:15;11.80;;;10.70;;
4182;SDS011;2105;52.300;9.182;2023-05-10T09:38:46;11.27;;;10.03;;
4182;SDS011;2105;52.300;9.182;2023-05-10T09:41:18;11.70;;;10.70;;
4182;SDS011;2105;52.300;9.182;2023-05-10T09:43:46;11.77;;;10.53;;
4182;SDS011;2105;52.300;9.182;2023-05-10T09:46:13;11.37;;;10.27;;
4182;SDS011;2105;52.300;9.182;2023-05-10T09:48:41;11.60;;;10.40;;
4182;SDS011;2105;52.300;9.182;2023-05-10T09:51:10;11.30;;;10.40;;
4182;SDS011;2105;52.300;9.182;2023-05-10T09:53:36;14.00;;;12.40;;
4182;SDS011;2105;52.300;9.182;2023-05-10T09:56:03;12.97;;;11.77;;
4182;SDS011;2105;52.300;9.182;2023-05-10T09:58:31;14.87;;;13.37;;
4182;SDS011;2105;52.300;9.182;2023-05-10T10:01:03;17.80;;;13.47;;
4182;SDS011;2105;52.300;9.182;2023-05-10T10:03:30;16.27;;;14.63;;
4182;SDS011;2105;52.300;9.182;2023-05-10T10:05:56;14.80;;;13.40;;
4182;SDS011;2105;52.300;9.182;2023-05-10T10:08:23;15.60;;;14.10;;
4182;SDS011;2105;52.300;9.182;2023-05-10T10:10:50;14.70;;;13.40;;
4182;SDS011;2105;52.300;9.182;2023-05-10T10:13:17;15.27;;;13.73;;
4182;SDS011;2105;52.300;9.182;2023-05-10T10:15:45;14.23;;;12.93;;
4182;SDS011;2105;52.300;9.182;2023-05-10T10:18:15;16.53;;;14.90;;
4182;SDS011;2105;52.300;9.182;2023-05-10T10:20:43;16.07;;;14.57;;
4182;SDS011;2105;52.300;9.182;2023-05-10T10:23:10;15.47;;;13.90;;
4182;SDS011;2105;52.300;9.182;2023-05-10T10:25:37;14.90;;;13.50;;
4182;SDS011;2105;52.300;9.182;2023-05-10T10:28:08;15.63;;;14.13;;
4182;SDS011;2105;52.300;9.182;2023-05-10T10:30:43;16.17;;;14.60;;
4182;SDS011;2105;52.300;9.182;2023-05-10T10:33:25;15.47;;;14.17;;
4182;SDS011;2105;52.300;9.182;2023-05-10T10:35:59;17.20;;;15.60;;
4182;SDS011;2105;52.300;9.182;2023-05-10T10:38:35;17.33;;;15.60;;
4182;SDS011;2105;52.300;9.182;2023-05-10T10:41:10;17.40;;;15.80;;
4182;SDS011;2105;52.300;9.182;2023-05-10T10:46:59;17.23;;;15.63;;
4182;SDS011;2105;52.300;9.182;2023-05-10T10:49:30;19.40;;;17.37;;
4182;SDS011;2105;52.300;9.182;2023-05-10T10:52:13;18.53;;;16.60;;
4182;SDS011;2105;52.300;9.182;2023-05-10T10:54:51;22.50;;;17.30;;
4182;SDS011;2105;52.300;9.182;2023-05-10T10:57:19;18.07;;;16.37;;
4182;SDS011;2105;52.300;9.182;2023-05-10T10:59:47;18.57;;;16.70;;
4182;SDS011;2105;52.300;9.182;2023-05-10T11:02:32;18.07;;;15.63;;
4182;SDS011;2105;52.300;9.182;2023-05-10T11:07:59;17.90;;;16.10;;
4182;SDS011;2105;52.300;9.182;2023-05-10T11:10:32;17.67;;;15.83;;
4182;SDS011;2105;52.300;9.182;2023-05-10T11:12:59;19.00;;;16.73;;
4182;SDS011;2105;52.300;9.182;2023-05-10T11:15:30;17.80;;;16.10;;
4182;SDS011;2105;52.300;9.182;2023-05-10T11:17:57;17.87;;;16.37;;
4182;SDS011;2105;52.300;9.182;2023-05-10T11:20:25;18.87;;;17.03;;
4182;SDS011;2105;52.300;9.182;2023-05-10T11:22:58;20.43;;;18.27;;
4182;SDS011;2105;52.300;9.182;2023-05-10T11:25:40;19.77;;;17.80;;
4182;SDS011;2105;52.300;9.182;2023-05-10T11:28:08;20.10;;;18.40;;
4182;SDS011;2105;52.300;9.182;2023-05-10T11:30:35;21.07;;;19.07;;
4182;SDS011;2105;52.300;9.182;2023-05-10T11:33:02;20.67;;;18.77;;
4182;SDS011;2105;52.300;9.182;2023-05-10T11:35:30;21.70;;;19.57;;
4182;SDS011;2105;52.300;9.182;2023-05-10T11:37:56;23.50;;;18.20;;
4182;SDS011;2105;52.300;9.182;2023-05-10T11:40:23;21.13;;;19.00;;
4182;SDS011;2105;52.300;9.182;2023-05-10T11:42:51;19.90;;;18.00;;
4182;SDS011;2105;52.300;9.182;2023-05-10T11:45:18;19.60;;;17.80;;
4182;SDS011;2105;52.300;9.182;2023-05-10T11:47:47;19.97;;;18.10;;
4182;SDS011;2105;52.300;9.182;2023-05-10T11:50:15;19.30;;;17.43;;
4182;SDS011;2105;52.300;9.182;2023-05-10T11:52:44;22.37;;;18.67;;
4182;SDS011;2105;52.300;9.182;2023-05-10T11:55:10;19.63;;;17.83;;
4182;SDS011;2105;52.300;9.182;2023-05-10T11:57:38;18.83;;;17.10;;
4182;SDS011;2105;52.300;9.182;2023-05-10T12:00:07;19.47;;;17.67;;
4182;SDS011;2105;52.300;9.182;2023-05-10T12:02:34;30.67;;;18.20;;
4182;SDS011;2105;52.300;9.182;2023-05-10T12:05:01;20.63;;;18.73;;
4182;SDS011;2105;52.300;9.182;2023-05-10T12:07:30;21.10;;;19.30;;
4182;SDS011;2105;52.300;9.182;2023-05-10T12:10:05;20.90;;;19.17;;
4182;SDS011;2105;52.300;9.182;2023-05-10T12:12:39;21.57;;;19.60;;
4182;SDS011;2105;52.300;9.182;2023-05-10T12:15:10;22.03;;;19.73;;
4182;SDS011;2105;52.300;9.182;2023-05-10T12:17:38;21.23;;;19.27;;
4182;SDS011;2105;52.300;9.182;2023-05-10T12:20:15;20.60;;;18.80;;
4182;SDS011;2105;52.300;9.182;2023-05-10T12:22:50;22.57;;;20.10;;
4182;SDS011;2105;52.300;9.182;2023-05-10T12:25:20;21.10;;;19.20;;
4182;SDS011;2105;52.300;9.182;2023-05-10T12:27:48;21.57;;;19.37;;
4182;SDS011;2105;52.300;9.182;2023-05-10T12:30:20;21.00;;;18.90;;
4182;SDS011;2105;52.300;9.182;2023-05-10T12:32:47;20.87;;;18.77;;
4182;SDS011;2105;52.300;9.182;2023-05-10T12:35:14;20.07;;;18.47;;
4182;SDS011;2105;52.300;9.182;2023-05-10T12:37:42;20.67;;;18.70;;
4182;SDS011;2105;52.300;9.182;2023-05-10T12:40:09;19.10;;;17.60;;
4182;SDS011;2105;52.300;9.182;2023-05-10T12:42:38;20.10;;;18.30;;
4182;SDS011;2105;52.300;9.182;2023-05-10T12:45:06;19.60;;;17.90;;
4182;SDS011;2105;52.300;9.182;2023-05-10T12:47:34;18.50;;;16.90;;
4182;SDS011;2105;52.300;9.182;2023-05-10T12:50:01;18.70;;;17.00;;
4182;SDS011;2105;52.300;9.182;2023-05-10T12:52:28;19.30;;;17.37;;
4182;SDS011;2105;52.300;9.182;2023-05-10T12:54:57;18.47;;;16.83;;
4182;SDS011;2105;52.300;9.182;2023-05-10T12:57:24;19.80;;;17.90;;
4182;SDS011;2105;52.300;9.182;2023-05-10T12:59:52;19.40;;;17.30;;
4182;SDS011;2105;52.300;9.182;2023-05-10T13:02:18;18.40;;;16.60;;
4182;SDS011;2105;52.300;9.182;2023-05-10T13:04:46;18.60;;;16.80;;
4182;SDS011;2105;52.300;9.182;2023-05-10T13:07:12;20.03;;;18.03;;
4182;SDS011;2105;52.300;9.182;2023-05-10T13:09:39;17.43;;;15.93;;
4182;SDS011;2105;52.300;9.182;2023-05-10T13:12:06;17.73;;;16.13;;
4182;SDS011;2105;52.300;9.182;2023-05-10T13:14:33;17.20;;;15.70;;
4182;SDS011;2105;52.300;9.182;2023-05-10T13:17:01;17.90;;;16.30;;
4182;SDS011;2105;52.300;9.182;2023-05-10T13:19:27;18.87;;;17.27;;
4182;SDS011;2105;52.300;9.182;2023-05-10T13:21:54;18.00;;;16.40;;
4182;SDS011;2105;52.300;9.182;2023-05-10T13:24:21;17.50;;;16.07;;
4182;SDS011;2105;52.300;9.182;2023-05-10T13:26:47;18.07;;;16.57;;
4182;SDS011;2105;52.300;9.182;2023-05-10T13:29:14;18.63;;;17.13;;
4182;SDS011;2105;52.300;9.182;2023-05-10T13:31:42;18.70;;;16.90;;
4182;SDS011;2105;52.300;9.182;2023-05-10T13:34:10;17.77;;;16.30;;
4182;SDS011;2105;52.300;9.182;2023-05-10T13:36:37;16.90;;;15.50;;
4182;SDS011;2105;52.300;9.182;2023-05-10T13:39:04;19.70;;;17.33;;
4182;SDS011;2105;52.300;9.182;2023-05-10T13:41:31;17.83;;;16.13;;
4182;SDS011;2105;52.300;9.182;2023-05-10T13:43:58;19.53;;;17.63;;
4182;SDS011;2105;52.300;9.182;2023-05-10T13:46:24;21.47;;;19.27;;
4182;SDS011;2105;52.300;9.182;2023-05-10T13:48:51;18.43;;;16.40;;
4182;SDS011;2105;52.300;9.182;2023-05-10T13:51:19;19.63;;;17.43;;
4182;SDS011;2105;52.300;9.182;2023-05-10T13:53:45;18.93;;;16.93;;
4182;SDS011;2105;52.300;9.182;2023-05-10T13:56:12;19.43;;;17.63;;
4182;SDS011;2105;52.300;9.182;2023-05-10T13:58:39;23.37;;;20.70;;
4182;SDS011;2105;52.300;9.182;2023-05-10T14:01:07;21.80;;;19.50;;
4182;SDS011;2105;52.300;9.182;2023-05-10T14:03:33;24.60;;;21.37;;
4182;SDS011;2105;52.300;9.182;2023-05-10T14:06:00;22.77;;;20.47;;
4182;SDS011;2105;52.300;9.182;2023-05-10T14:08:28;24.20;;;21.20;;
4182;SDS011;2105;52.300;9.182;2023-05-10T14:10:55;23.73;;;21.23;;
4182;SDS011;2105;52.300;9.182;2023-05-10T14:13:22;22.73;;;20.33;;
4182;SDS011;2105;52.300;9.182;2023-05-10T14:15:49;23.80;;;20.73;;
4182;SDS011;2105;52.300;9.182;2023-05-10T14:18:16;24.80;;;22.13;;
4182;SDS011;2105;52.300;9.182;2023-05-10T14:20:43;28.63;;;22.00;;
4182;SDS011;2105;52.300;9.182;2023-05-10T14:23:10;24.47;;;21.87;;
4182;SDS011;2105;52.300;9.182;2023-05-10T14:25:39;26.43;;;23.60;;
4182;SDS011;2105;52.300;9.182;2023-05-10T14:28:06;24.27;;;21.67;;
4182;SDS011;2105;52.300;9.182;2023-05-10T14:30:32;26.13;;;23.23;;
4182;SDS011;2105;52.300;9.182;2023-05-10T14:33:00;26.90;;;24.00;;
4182;SDS011;2105;52.300;9.182;2023-05-10T14:35:29;26.23;;;23.43;;
4182;SDS011;2105;52.300;9.182;2023-05-10T14:37:56;25.00;;;22.50;;
4182;SDS011;2105;52.300;9.182;2023-05-10T14:40:23;26.60;;;23.90;;
4182;SDS011;2105;52.300;9.182;2023-05-10T14:42:52;27.30;;;24.13;;
4182;SDS011;2105;52.300;9.182;2023-05-10T14:45:18;27.10;;;23.53;;
4182;SDS011;2105;52.300;9.182;2023-05-10T14:47:46;26.27;;;23.10;;
4182;SDS011;2105;52.300;9.182;2023-05-10T14:50:13;24.87;;;22.23;;
4182;SDS011;2105;52.300;9.182;2023-05-10T14:52:40;25.23;;;22.57;;
4182;SDS011;2105;52.300;9.182;2023-05-10T14:55:07;22.10;;;19.77;;
4182;SDS011;2105;52.300;9.182;2023-05-10T14:57:34;29.90;;;20.17;;
4182;SDS011;2105;52.300;9.182;2023-05-10T15:00:02;21.03;;;18.83;;
4182;SDS011;2105;52.300;9.182;2023-05-10T15:02:30;20.40;;;18.43;;
4182;SDS011;2105;52.300;9.182;2023-05-10T15:04:57;19.23;;;17.30;;
4182;SDS011;2105;52.300;9.182;2023-05-10T15:07:23;18.43;;;16.70;;
4182;SDS011;2105;52.300;9.182;2023-05-10T15:09:50;18.80;;;16.90;;
4182;SDS011;2105;52.300;9.182;2023-05-10T15:12:17;19.13;;;17.33;;
4182;SDS011;2105;52.300;9.182;2023-05-10T15:14:44;18.20;;;16.60;;
4182;SDS011;2105;52.300;9.182;2023-05-10T15:17:12;18.50;;;16.87;;
4182;SDS011;2105;52.300;9.182;2023-05-10T15:19:38;18.87;;;17.10;;